TimeCDT,TemperatureF,Dew PointF,Humidity,Sea Level PressureIn,VisibilityMPH,Wind Direction,Wind SpeedMPH,Gust SpeedMPH,PrecipitationIn,Events,Conditions,WindDirDegrees,DateUTC
12:56 AM,37.9,32.9,82,30.33,10.0,Calm,Calm,-,N/A,,Clear,0,2013-03-29 05:56:00
1:56 AM,36.0,32.0,86,30.33,10.0,Calm,Calm,-,N/A,,Clear,0,2013-03-29 06:56:00
2:56 AM,34.9,32.9,92,30.32,10.0,Calm,Calm,-,N/A,,Clear,0,2013-03-29 07:56:00
3:56 AM,34.9,32.0,89,30.31,10.0,Calm,Calm,-,N/A,,Clear,0,2013-03-29 08:56:00
4:56 AM,46.9,28.0,48,30.30,10.0,SSE,8.1,-,N/A,,Clear,150,2013-03-29 09:56:00
5:56 AM,46.9,29.1,50,30.30,10.0,SSE,5.8,-,N/A,,Clear,160,2013-03-29 10:56:00
6:56 AM,46.9,29.1,50,30.32,10.0,SSE,8.1,-,N/A,,Scattered Clouds,160,2013-03-29 11:56:00
7:56 AM,48.9,30.0,48,30.34,10.0,SSE,6.9,-,N/A,,Clear,160,2013-03-29 12:56:00
8:56 AM,50.0,32.0,50,30.35,10.0,South,3.5,-,N/A,,Clear,180,2013-03-29 13:56:00
9:56 AM,54.9,32.9,43,30.35,10.0,South,6.9,-,N/A,,Clear,170,2013-03-29 14:56:00
10:56 AM,63.0,32.0,31,30.33,10.0,SW,9.2,-,N/A,,Mostly Cloudy,220,2013-03-29 15:56:00
11:56 AM,63.9,32.0,30,30.32,10.0,SW,12.7,20.7,N/A,,Mostly Cloudy,230,2013-03-29 16:56:00
12:56 PM,68.0,34.9,29,30.28,10.0,SSW,11.5,-,N/A,,Partly Cloudy,210,2013-03-29 17:56:00
1:56 PM,66.9,34.9,31,30.26,10.0,SW,13.8,21.9,N/A,,Scattered Clouds,230,2013-03-29 18:56:00
2:56 PM,66.9,36.0,32,30.23,10.0,SSW,9.2,-,N/A,,Scattered Clouds,210,2013-03-29 19:56:00
3:56 PM,65.8,36.9,34,30.22,10.0,WSW,11.5,-,N/A,,Mostly Cloudy,240,2013-03-29 20:56:00
4:56 PM,61.9,41.9,48,30.23,10.0,NW,5.8,-,N/A,,Mostly Cloudy,310,2013-03-29 21:56:00
5:56 PM,59.9,43.9,55,30.24,10.0,WNW,4.6,-,0.00,,Partly Cloudy,300,2013-03-29 22:56:00
6:56 PM,57.9,45.9,64,30.24,10.0,Variable,3.5,-,0.00,,Overcast,0,2013-03-29 23:56:00
7:56 PM,57.9,43.9,60,30.24,10.0,West,3.5,-,0.00,,Overcast,260,2013-03-30 00:56:00
8:56 PM,55.9,45.0,67,30.24,10.0,Calm,Calm,-,N/A,,Overcast,0,2013-03-30 01:56:00
9:56 PM,54.0,45.9,74,30.25,10.0,Calm,Calm,-,N/A,,Overcast,0,2013-03-30 02:56:00
10:56 PM,52.9,45.9,77,30.25,10.0,North,4.6,-,N/A,,Overcast,350,2013-03-30 03:56:00
11:56 PM,52.0,45.9,80,30.24,10.0,Calm,Calm,-,N/A,,Partly Cloudy,0,2013-03-30 04:56:00